Time;durP1;ratioP1;P1;durP2;ratioP2;P2;SDS_P1;SDS_P2;PMS_P1;PMS_P2;Temp;Humidity;BMP_temperature;BMP_pressure;BME280_temperature;BME280_humidity;BME280_pressure;Samples;Min_cycle;Max_cycle;Signal;HPM_P1;HPM_P2
2023/06/03 00:05:39;;;;;;;13.17;12.00;;;11.60;99.90;;;;;;2613926;54;20411;-71
2023/06/03 00:11:26;;;;;;;19.03;11.20;;;11.50;99.90;;;;;;2613432;54;21364;-71
2023/06/03 00:17:15;;;;;;;12.17;11.07;;;11.50;99.90;;;;;;2613681;54;20169;-71
2023/06/03 00:23:06;;;;;;;12.67;11.50;;;11.50;99.90;;;;;;2614475;54;20459;-72
2023/06/03 00:28:53;;;;;;;12.23;11.13;;;11.60;99.90;;;;;;2613255;54;20970;-71
2023/06/03 00:34:41;;;;;;;12.20;11.00;;;11.60;99.90;;;;;;2613291;39;20432;-71
2023/06/03 00:37:45;;;;;;;11.90;10.70;;;11.60;99.90;;;;;;2612827;54;20387;-70
2023/06/03 00:40:11;;;;;;;14.00;11.90;;;11.70;99.90;;;;;;2614239;54;20711;-71
2023/06/03 00:45:59;;;;;;;11.40;10.40;;;11.50;99.90;;;;;;2609296;54;20406;-72
2023/06/03 00:51:47;;;;;;;11.33;10.23;;;11.50;99.90;;;;;;2610355;54;20382;-71
2023/06/03 00:57:35;;;;;;;11.57;10.43;;;11.40;99.90;;;;;;2615167;54;20371;-71
2023/06/03 01:03:23;;;;;;;15.57;11.00;;;11.30;99.90;;;;;;2610639;54;20134;-73
2023/06/03 01:09:21;;;;;;;12.47;11.37;;;11.20;99.90;;;;;;2611661;54;20146;-74
2023/06/03 01:15:15;;;;;;;11.07;9.97;;;11.10;99.90;;;;;;2611540;54;20395;-73
2023/06/03 01:21:05;;;;;;;11.17;9.93;;;11.00;99.90;;;;;;2611735;54;20383;-73
2023/06/03 01:26:52;;;;;;;11.50;10.37;;;11.10;99.90;;;;;;2610072;54;20439;-74
2023/06/03 01:32:42;;;;;;;11.27;10.17;;;11.10;99.90;;;;;;2608656;54;20230;-72
2023/06/03 01:38:30;;;;;;;13.07;10.87;;;11.10;99.90;;;;;;2614062;54;20423;-73
2023/06/03 01:44:18;;;;;;;12.73;10.73;;;11.00;99.90;;;;;;2608729;54;20366;-73
2023/06/03 01:50:07;;;;;;;11.43;10.30;;;10.90;99.90;;;;;;2609168;54;20162;-73
2023/06/03 01:55:55;;;;;;;15.17;10.23;;;10.80;99.90;;;;;;2606510;54;20524;-73
2023/06/03 02:01:43;;;;;;;14.73;10.93;;;10.90;99.90;;;;;;2609648;54;20138;-73
2023/06/03 02:07:31;;;;;;;12.20;10.90;;;10.90;99.90;;;;;;2610306;54;20965;-72
2023/06/03 02:13:20;;;;;;;20.07;11.10;;;10.90;99.90;;;;;;2610927;54;20134;-73
2023/06/03 02:19:16;;;;;;;15.57;11.17;;;10.80;99.90;;;;;;2606289;39;20987;-72
2023/06/03 02:25:06;;;;;;;11.40;10.23;;;10.80;99.90;;;;;;2605855;54;20391;-73
2023/06/03 02:30:53;;;;;;;11.60;10.17;;;10.80;99.90;;;;;;2613650;54;20388;-73
2023/06/03 02:36:43;;;;;;;14.20;10.73;;;10.80;99.90;;;;;;2614698;54;20135;-73
2023/06/03 02:42:31;;;;;;;12.80;10.97;;;10.80;99.90;;;;;;2612005;54;20387;-74
2023/06/03 02:48:19;;;;;;;11.07;9.60;;;10.70;99.90;;;;;;2609546;54;21660;-74
2023/06/03 02:54:07;;;;;;;14.00;10.47;;;10.70;99.90;;;;;;2609773;54;20121;-73
2023/06/03 02:59:56;;;;;;;14.63;10.30;;;10.60;99.90;;;;;;2609806;54;20166;-73
2023/06/03 03:05:44;;;;;;;17.33;11.17;;;10.50;99.90;;;;;;2612337;54;20395;-73
2023/06/03 03:14:53;;;;;;;11.73;9.70;;;10.50;99.90;;;;;;2608170;54;20503;-73
2023/06/03 03:20:41;;;;;;;12.33;10.87;;;10.40;99.90;;;;;;2609590;54;20149;-73
2023/06/03 03:26:28;;;;;;;11.50;10.50;;;10.30;99.90;;;;;;2612060;31;20612;-74
2023/06/03 03:32:19;;;;;;;11.20;10.13;;;10.30;99.90;;;;;;2609712;54;20688;-73
2023/06/03 03:38:07;;;;;;;9.90;9.07;;;10.40;99.90;;;;;;2609637;54;20371;-72
2023/06/03 03:43:55;;;;;;;11.03;9.63;;;10.30;99.90;;;;;;2609923;54;20616;-73
2023/06/03 03:49:43;;;;;;;11.53;10.10;;;10.40;99.90;;;;;;2609990;39;20442;-74
2023/06/03 03:55:38;;;;;;;11.30;10.20;;;10.50;99.90;;;;;;2609768;54;20652;-74
2023/06/03 04:01:28;;;;;;;12.07;10.80;;;10.50;99.90;;;;;;2610660;39;20808;-73
2023/06/03 04:07:20;;;;;;;10.93;10.00;;;10.50;99.90;;;;;;2609568;54;20411;-73
2023/06/03 04:13:22;;;;;;;10.70;9.80;;;10.50;99.90;;;;;;2606609;54;20426;-73
2023/06/03 04:25:23;;;;;;;11.30;10.27;;;10.70;99.90;;;;;;2609360;39;20795;-72
2023/06/03 04:31:10;;;;;;;11.63;10.80;;;10.80;99.90;;;;;;2609107;39;20766;-73
2023/06/03 04:36:57;;;;;;;10.90;10.10;;;10.90;99.90;;;;;;2605224;54;20344;-72
2023/06/03 04:42:46;;;;;;;11.43;10.50;;;11.20;99.90;;;;;;2612793;54;20123;-73
2023/06/03 04:48:33;;;;;;;11.73;10.90;;;11.60;99.90;;;;;;2609948;54;20379;-73
2023/06/03 04:54:23;;;;;;;12.40;11.47;;;11.90;99.90;;;;;;2609806;54;20944;-74
2023/06/03 05:00:12;;;;;;;11.53;10.73;;;12.20;99.90;;;;;;2609713;54;20439;-73
2023/06/03 05:06:01;;;;;;;11.50;11.00;;;12.40;99.90;;;;;;2609879;54;20499;-73
2023/06/03 05:15:11;;;;;;;13.20;11.80;;;13.10;99.90;;;;;;2611575;39;20815;-73
2023/06/03 05:20:59;;;;;;;12.20;11.57;;;13.40;99.90;;;;;;2611008;54;20430;-73
2023/06/03 05:26:47;;;;;;;13.20;12.50;;;13.80;99.90;;;;;;2609982;54;20238;-73
2023/06/03 05:32:35;;;;;;;12.90;12.10;;;13.60;99.90;;;;;;2610482;54;20161;-73
2023/06/03 05:38:23;;;;;;;13.23;12.33;;;13.70;96.80;;;;;;2609133;54;20492;-74
2023/06/03 05:44:11;;;;;;;13.27;12.47;;;13.80;88.00;;;;;;2612532;54;20423;-73
2023/06/03 05:49:59;;;;;;;13.60;13.00;;;14.30;73.70;;;;;;2613830;54;20158;-74
2023/06/03 05:55:48;;;;;;;14.13;13.20;;;14.80;55.20;;;;;;2611520;54;20279;-74
2023/06/03 06:01:35;;;;;;;14.43;13.63;;;15.30;45.90;;;;;;2612610;54;20399;-85
2023/06/03 06:07:23;;;;;;;13.80;13.20;;;15.80;35.50;;;;;;2607816;54;20130;-75
2023/06/03 06:10:34;;;;;;;14.10;13.37;;;15.60;33.30;;;;;;2608915;54;20408;-74
2023/06/03 06:12:59;;;;;;;14.23;13.53;;;15.80;30.20;;;;;;2609969;39;20723;-74
2023/06/03 06:18:48;;;;;;;15.60;14.60;;;16.00;27.00;;;;;;2611167;54;20129;-75
2023/06/03 06:24:37;;;;;;;14.40;13.70;;;15.80;25.20;;;;;;2613351;39;21275;-75
2023/06/03 06:30:25;;;;;;;15.27;14.43;;;15.80;22.80;;;;;;2615456;54;20395;-75
2023/06/03 06:39:54;;;;;;;14.80;14.00;;;16.40;20.80;;;;;;2614061;54;20387;-75
2023/06/03 06:48:51;;;;;;;15.27;14.37;;;16.70;17.90;;;;;;2613712;39;20788;-74
2023/06/03 06:54:40;;;;;;;14.93;14.33;;;17.30;16.40;;;;;;2612566;54;20410;-73
2023/06/03 07:00:28;;;;;;;15.00;14.20;;;17.00;13.50;;;;;;2613321;54;20387;-74
2023/06/03 07:06:16;;;;;;;15.23;14.20;;;17.10;13.40;;;;;;2614188;54;21021;-74
2023/06/03 07:12:04;;;;;;;15.07;13.87;;;17.30;11.10;;;;;;2613189;39;20596;-74
2023/06/03 07:17:53;;;;;;;14.80;13.90;;;17.50;9.90;;;;;;2613742;54;20399;-75
2023/06/03 07:23:47;;;;;;;15.17;14.47;;;17.70;11.00;;;;;;2614054;54;20410;-74
2023/06/03 07:29:38;;;;;;;14.10;13.40;;;18.20;8.20;;;;;;2609029;54;20395;-75
2023/06/03 07:35:28;;;;;;;14.80;14.10;;;18.10;8.10;;;;;;2614574;54;20574;-74
2023/06/03 07:47:36;;;;;;;16.57;15.57;;;18.70;7.30;;;;;;2614678;54;20382;-75
2023/06/03 07:53:25;;;;;;;13.77;13.17;;;18.90;5.30;;;;;;2614320;54;20425;-74
2023/06/03 07:59:14;;;;;;;13.50;12.70;;;19.10;4.40;;;;;;2614188;54;20399;-75
2023/06/03 08:05:04;;;;;;;12.87;12.27;;;19.40;4.80;;;;;;2613706;54;20415;-75
2023/06/03 08:10:52;;;;;;;13.53;12.83;;;20.00;4.90;;;;;;2614442;39;20925;-75
2023/06/03 08:16:40;;;;;;;13.43;12.70;;;20.20;2.20;;;;;;2613889;54;20734;-76
2023/06/03 08:22:28;;;;;;;13.13;12.53;;;20.10;1.40;;;;;;2614138;54;20130;-75
2023/06/03 08:28:15;;;;;;;13.50;12.70;;;20.40;2.20;;;;;;2613964;54;20198;-75
2023/06/03 08:34:03;;;;;;;13.20;12.50;;;20.20;1.00;;;;;;2615017;54;20130;-75
2023/06/03 08:39:52;;;;;;;12.53;11.83;;;19.60;1.80;;;;;;2615164;54;20146;-76
2023/06/03 08:45:55;;;;;;;12.67;11.67;;;20.30;1.00;;;;;;2612171;54;20387;-76
2023/06/03 08:51:46;;;;;;;13.27;12.30;;;20.50;1.00;;;;;;2614194;54;20399;-76
2023/06/03 08:57:40;;;;;;;12.77;11.87;;;20.90;1.00;;;;;;2614835;54;20435;-76
2023/06/03 09:03:28;;;;;;;14.27;13.30;;;21.30;1.00;;;;;;2612527;54;20427;-75
2023/06/03 09:09:16;;;;;;;14.50;13.70;;;21.50;1.00;;;;;;2614483;54;20415;-75
2023/06/03 09:15:05;;;;;;;14.27;13.47;;;21.20;1.00;;;;;;2608692;54;20388;-75
2023/06/03 09:20:53;;;;;;;13.23;12.43;;;21.30;1.00;;;;;;2610853;54;20475;-74
2023/06/03 09:26:41;;;;;;;13.30;12.60;;;21.80;1.00;;;;;;2611995;54;20150;-75
2023/06/03 09:32:36;;;;;;;13.13;12.03;;;20.80;1.00;;;;;;2612649;54;20224;-75
2023/06/03 09:38:24;;;;;;;13.70;12.90;;;22.60;1.00;;;;;;2614176;54;20399;-75
2023/06/03 09:44:12;;;;;;;13.20;12.47;;;21.80;1.00;;;;;;2613971;54;20143;-75
2023/06/03 09:50:02;;;;;;;13.50;12.70;;;22.20;1.00;;;;;;2611345;54;20178;-76
2023/06/03 09:55:50;;;;;;;13.97;13.27;;;22.50;1.00;;;;;;2614075;54;20415;-76
2023/06/03 10:01:38;;;;;;;15.07;14.27;;;22.70;1.00;;;;;;2611029;54;21406;-75
2023/06/03 10:07:26;;;;;;;13.83;13.03;;;21.60;1.00;;;;;;2613406;39;20539;-75
2023/06/03 10:10:49;;;;;;;14.50;13.60;;;21.80;1.00;;;;;;2613064;47;20522;-75
2023/06/03 10:13:19;;;;;;;15.17;14.17;;;22.10;1.00;;;;;;2612038;54;20155;-75
2023/06/03 10:19:07;;;;;;;14.00;13.30;;;22.80;1.00;;;;;;2614520;54;20391;-76
2023/06/03 10:24:57;;;;;;;15.20;14.40;;;22.40;1.00;;;;;;2613409;54;20760;-76
2023/06/03 10:30:45;;;;;;;13.13;12.43;;;21.60;1.00;;;;;;2613082;54;21003;-76
2023/06/03 10:36:35;;;;;;;14.10;13.20;;;22.00;1.00;;;;;;2616459;54;20391;-75
2023/06/03 10:42:23;;;;;;;13.37;12.57;;;22.90;1.00;;;;;;2614534;54;20427;-75
2023/06/03 10:48:15;;;;;;;12.60;11.90;;;22.60;1.00;;;;;;2614986;39;20748;-74
2023/06/03 11:00:53;;;;;;;12.83;12.13;;;23.20;1.00;;;;;;2613988;54;20463;-73
2023/06/03 11:06:40;;;;;;;13.87;12.20;;;23.40;1.00;;;;;;2614124;54;20849;-75
2023/06/03 11:16:03;;;;;;;12.43;11.73;;;23.00;1.00;;;;;;2616045;54;20434;-85
2023/06/03 11:21:51;;;;;;;12.30;11.70;;;23.90;1.00;;;;;;2614933;54;20479;-81
2023/06/03 11:27:39;;;;;;;11.93;11.23;;;23.50;1.00;;;;;;2611230;47;20138;-80
2023/06/03 11:33:27;;;;;;;12.80;11.90;;;23.60;1.00;;;;;;2613968;54;20122;-81
2023/06/03 11:39:15;;;;;;;12.57;11.87;;;23.40;1.00;;;;;;2615303;54;20162;-83
2023/06/03 11:51:28;;;;;;;11.70;11.10;;;23.60;1.00;;;;;;2610057;54;20503;-72
2023/06/03 11:57:16;;;;;;;12.60;11.80;;;23.80;1.00;;;;;;2610833;39;20790;-72
2023/06/03 12:09:20;;;;;;;12.60;11.80;;;23.90;1.00;;;;;;2608122;54;20394;-72
2023/06/03 12:15:09;;;;;;;13.10;12.03;;;23.90;1.00;;;;;;2613192;54;20367;-71
2023/06/03 12:27:42;;;;;;;12.57;11.87;;;24.50;1.00;;;;;;2612412;54;20379;-72
2023/06/03 12:30:46;;;;;;;12.83;12.03;;;24.10;1.00;;;;;;2613773;47;20428;-72
2023/06/03 12:33:11;;;;;;;13.20;12.40;;;24.30;1.00;;;;;;2614283;54;20159;-73
2023/06/03 12:39:00;;;;;;;12.70;11.90;;;24.10;1.00;;;;;;2614941;54;20210;-72
2023/06/03 12:44:52;;;;;;;12.30;11.43;;;25.10;1.00;;;;;;2613623;54;20434;-73
2023/06/03 12:50:40;;;;;;;12.07;11.37;;;24.20;1.00;;;;;;2614494;54;21371;-73
2023/06/03 12:56:28;;;;;;;12.00;11.40;;;24.20;1.00;;;;;;2614948;54;20254;-72
2023/06/03 13:02:15;;;;;;;11.70;10.93;;;24.10;1.00;;;;;;2613927;54;20138;-73
2023/06/03 13:08:03;;;;;;;12.17;11.37;;;24.50;1.00;;;;;;2612474;54;20158;-72
2023/06/03 13:11:21;;;;;;;11.63;10.93;;;24.40;1.00;;;;;;2614892;46;20404;-70
2023/06/03 13:13:47;;;;;;;11.40;10.80;;;24.20;1.00;;;;;;2613014;47;20166;-73
2023/06/03 13:19:38;;;;;;;11.63;10.93;;;25.00;1.00;;;;;;2615340;54;20491;-72
2023/06/03 13:25:25;;;;;;;11.90;11.23;;;24.80;1.00;;;;;;2614049;54;20531;-72
2023/06/03 13:31:13;;;;;;;11.50;10.70;;;24.60;1.00;;;;;;2614852;54;20207;-72
2023/06/03 13:37:01;;;;;;;11.70;11.00;;;25.20;1.00;;;;;;2614045;54;20140;-74
2023/06/03 13:42:49;;;;;;;11.73;11.03;;;25.00;1.00;;;;;;2615325;54;20122;-71
2023/06/03 13:48:36;;;;;;;11.73;11.03;;;24.30;1.00;;;;;;2611630;54;20199;-71
2023/06/03 13:54:24;;;;;;;11.50;10.80;;;24.30;1.00;;;;;;2614295;54;20138;-73
2023/06/03 14:00:12;;;;;;;14.40;12.97;;;23.70;1.00;;;;;;2614825;54;20251;-71
2023/06/03 14:05:59;;;;;;;11.60;10.90;;;24.50;1.00;;;;;;2613337;54;20175;-73
2023/06/03 14:15:50;;;;;;;11.47;10.77;;;24.20;1.00;;;;;;2614559;54;20418;-71
2023/06/03 14:21:38;;;;;;;12.33;11.40;;;24.50;1.00;;;;;;2613027;54;20411;-71
2023/06/03 14:27:25;;;;;;;11.50;10.80;;;24.30;1.00;;;;;;2612790;54;20242;-72
2023/06/03 14:33:13;;;;;;;11.47;10.77;;;24.80;1.00;;;;;;2613776;54;20186;-72
2023/06/03 14:39:01;;;;;;;11.90;11.00;;;24.70;1.00;;;;;;2610432;54;20126;-72
2023/06/03 14:44:49;;;;;;;11.60;10.90;;;23.90;1.00;;;;;;2613591;54;20130;-71
2023/06/03 14:50:37;;;;;;;11.33;10.73;;;24.00;1.00;;;;;;2616011;54;20503;-80
2023/06/03 14:56:25;;;;;;;11.30;10.60;;;24.00;1.00;;;;;;2615039;54;20146;-80
2023/06/03 15:02:13;;;;;;;11.57;10.87;;;23.50;1.00;;;;;;2616165;54;20371;-77
2023/06/03 15:08:01;;;;;;;11.73;10.93;;;23.80;1.00;;;;;;2616771;54;20395;-80
2023/06/03 15:11:22;;;;;;;11.40;10.80;;;24.10;1.00;;;;;;2616209;54;20443;-81
2023/06/03 15:13:47;;;;;;;11.70;11.00;;;23.80;1.00;;;;;;2616211;54;20143;-79
2023/06/03 15:19:35;;;;;;;11.43;10.83;;;23.80;1.00;;;;;;2615028;54;20147;-79
2023/06/03 15:25:23;;;;;;;11.37;10.80;;;23.70;1.00;;;;;;2616049;54;20138;-80
2023/06/03 15:31:11;;;;;;;11.50;10.90;;;23.30;1.00;;;;;;2612672;54;20918;-78
2023/06/03 15:36:58;;;;;;;12.27;11.57;;;23.70;1.00;;;;;;2611511;54;20150;-80
2023/06/03 15:42:46;;;;;;;12.00;11.20;;;23.60;1.00;;;;;;2613818;54;20731;-78
2023/06/03 15:48:34;;;;;;;12.20;11.40;;;23.60;1.00;;;;;;2614294;39;20818;-73
2023/06/03 15:54:22;;;;;;;12.20;11.60;;;23.40;1.00;;;;;;2613663;54;20134;-78
2023/06/03 16:00:10;;;;;;;12.50;11.80;;;23.40;1.00;;;;;;2613333;54;20174;-78
2023/06/03 16:05:58;;;;;;;12.20;10.70;;;24.20;1.00;;;;;;2615753;39;20597;-79
2023/06/03 16:15:51;;;;;;;13.27;12.77;;;24.30;1.00;;;;;;2614526;54;20415;-78
2023/06/03 16:21:39;;;;;;;12.93;12.23;;;24.40;1.00;;;;;;2614662;54;20423;-79
2023/06/03 16:27:27;;;;;;;12.87;12.37;;;23.70;1.00;;;;;;2615345;54;20664;-77
2023/06/03 16:33:15;;;;;;;13.50;12.80;;;23.30;1.00;;;;;;2616238;54;20154;-79
2023/06/03 16:39:03;;;;;;;13.90;13.10;;;22.60;1.00;;;;;;2615642;54;20406;-79
2023/06/03 16:44:51;;;;;;;13.40;12.60;;;22.40;1.00;;;;;;2615822;54;20443;-79
2023/06/03 16:50:41;;;;;;;13.87;13.27;;;22.50;1.00;;;;;;2614643;54;20146;-78
2023/06/03 16:56:30;;;;;;;15.60;14.87;;;22.30;1.00;;;;;;2616620;39;20770;-73
2023/06/03 17:02:17;;;;;;;16.70;15.40;;;22.00;1.00;;;;;;2614583;54;20402;-79
2023/06/03 17:08:05;;;;;;;16.07;15.37;;;21.80;1.00;;;;;;2616918;39;20632;-78
2023/06/03 17:11:21;;;;;;;15.83;15.23;;;21.80;1.00;;;;;;2616583;54;20395;-82
2023/06/03 17:13:49;;;;;;;15.67;14.97;;;21.80;1.00;;;;;;2611291;54;20159;-81
2023/06/03 17:19:40;;;;;;;15.63;14.73;;;21.90;1.00;;;;;;2615793;54;20403;-80
2023/06/03 17:25:28;;;;;;;16.00;15.40;;;21.50;1.00;;;;;;2615743;54;20507;-81
2023/06/03 17:31:16;;;;;;;16.20;15.50;;;21.70;1.00;;;;;;2614208;54;20134;-82
2023/06/03 17:37:04;;;;;;;16.77;16.17;;;21.10;1.00;;;;;;2613558;54;20165;-81
2023/06/03 17:42:51;;;;;;;16.70;16.00;;;20.90;1.00;;;;;;2611818;54;20399;-80
2023/06/03 17:48:39;;;;;;;16.27;15.47;;;20.60;1.00;;;;;;2614377;54;20123;-82
2023/06/03 17:54:27;;;;;;;16.67;15.97;;;20.40;1.00;;;;;;2612699;54;20130;-81
2023/06/03 18:00:17;;;;;;;16.80;16.10;;;20.30;1.00;;;;;;2613323;39;20523;-81
2023/06/03 18:06:06;;;;;;;16.17;15.27;;;20.10;1.00;;;;;;2612007;54;20527;-79
2023/06/03 18:15:50;;;;;;;15.87;15.27;;;19.90;1.00;;;;;;2614415;54;20500;-81
2023/06/03 18:21:40;;;;;;;16.20;15.60;;;19.70;1.00;;;;;;2613992;54;20411;-81
2023/06/03 18:27:29;;;;;;;17.17;16.47;;;19.50;1.00;;;;;;2612637;54;20419;-79
2023/06/03 18:30:33;;;;;;;17.00;15.80;;;19.40;1.00;;;;;;2610867;54;21099;-80
2023/06/03 18:32:58;;;;;;;16.90;16.17;;;19.30;1.00;;;;;;2613377;54;21076;-79
2023/06/03 18:38:46;;;;;;;16.60;15.90;;;19.20;1.00;;;;;;2615618;39;20549;-79
2023/06/03 18:44:35;;;;;;;16.00;15.17;;;19.10;1.00;;;;;;2613831;54;20146;-80
2023/06/03 18:50:24;;;;;;;16.50;15.70;;;18.90;1.00;;;;;;2614932;54;20408;-80
2023/06/03 18:56:13;;;;;;;16.30;15.70;;;18.70;1.00;;;;;;2612611;46;20418;-81
2023/06/03 19:02:02;;;;;;;19.13;18.23;;;18.60;1.00;;;;;;2614949;54;20391;-81
2023/06/03 19:07:51;;;;;;;16.13;15.50;;;18.40;1.00;;;;;;2613031;54;20415;-80
2023/06/03 19:13:39;;;;;;;16.00;15.30;;;18.20;1.00;;;;;;2613508;54;20579;-81
2023/06/03 19:19:27;;;;;;;15.70;15.10;;;18.20;1.00;;;;;;2612771;54;20134;-81
2023/06/03 19:25:17;;;;;;;14.97;14.37;;;18.00;1.00;;;;;;2612826;54;20170;-81
2023/06/03 19:31:04;;;;;;;15.47;14.80;;;17.70;1.00;;;;;;2613952;54;20415;-79
2023/06/03 19:36:55;;;;;;;15.30;14.70;;;17.60;1.00;;;;;;2613959;54;20125;-80
2023/06/03 19:42:44;;;;;;;16.13;15.40;;;17.30;1.00;;;;;;2613889;54;20419;-80
2023/06/03 19:48:35;;;;;;;17.23;15.90;;;17.10;1.00;;;;;;2614631;54;20511;-80
2023/06/03 19:54:22;;;;;;;16.43;15.70;;;17.00;1.00;;;;;;2614749;39;20923;-80
2023/06/03 20:00:11;;;;;;;16.53;15.83;;;16.80;1.00;;;;;;2614551;54;20126;-79
2023/06/03 20:05:59;;;;;;;17.23;16.33;;;16.70;1.00;;;;;;2614802;39;20597;-78
2023/06/03 20:15:53;;;;;;;16.40;15.70;;;16.40;1.00;;;;;;2614680;54;20494;-78
2023/06/03 20:21:42;;;;;;;17.10;16.40;;;16.10;1.00;;;;;;2610855;54;20438;-78
2023/06/03 20:27:30;;;;;;;17.37;16.50;;;16.10;1.00;;;;;;2612855;39;20773;-79
2023/06/03 20:33:18;;;;;;;17.40;16.50;;;15.90;1.00;;;;;;2612530;54;20150;-79
2023/06/03 20:39:06;;;;;;;19.57;17.97;;;15.70;1.00;;;;;;2614500;39;20573;-80
2023/06/03 20:44:53;;;;;;;17.70;17.00;;;15.50;1.00;;;;;;2609821;54;20660;-79
2023/06/03 20:50:42;;;;;;;16.80;16.10;;;15.30;1.00;;;;;;2613905;54;20134;-79
2023/06/03 20:56:30;;;;;;;16.77;16.07;;;15.20;1.00;;;;;;2614481;54;20408;-80
2023/06/03 21:02:19;;;;;;;17.53;16.43;;;15.00;1.00;;;;;;2614109;54;20423;-79
2023/06/03 21:08:07;;;;;;;16.87;16.17;;;14.90;1.00;;;;;;2609515;39;20750;-79
2023/06/03 21:11:25;;;;;;;18.00;17.17;;;14.90;1.00;;;;;;2609494;47;20440;-80
2023/06/03 21:13:50;;;;;;;18.17;17.27;;;14.80;1.00;;;;;;2608732;46;20170;-80
2023/06/03 21:19:38;;;;;;;17.87;17.07;;;14.70;1.00;;;;;;2609776;39;20485;-79
2023/06/03 21:25:26;;;;;;;18.70;17.80;;;14.60;1.00;;;;;;2611456;54;20259;-80
2023/06/03 21:31:13;;;;;;;18.50;17.63;;;14.50;1.00;;;;;;2610887;39;20547;-79
2023/06/03 21:37:03;;;;;;;17.53;16.63;;;14.20;1.00;;;;;;2610247;46;20170;-79
2023/06/03 21:42:50;;;;;;;18.10;17.07;;;14.00;2.10;;;;;;2608710;39;20706;-79
2023/06/03 21:48:38;;;;;;;17.67;16.47;;;13.80;3.80;;;;;;2610071;54;20671;-79
2023/06/03 21:54:26;;;;;;;18.40;17.50;;;13.60;5.00;;;;;;2611327;54;20150;-79
2023/06/03 22:00:16;;;;;;;18.87;17.87;;;13.70;6.00;;;;;;2611577;54;20161;-78
2023/06/03 22:06:05;;;;;;;20.60;19.40;;;13.60;6.40;;;;;;2609415;54;20383;-79
2023/06/03 22:15:53;;;;;;;32.83;29.87;;;13.20;8.80;;;;;;2611745;54;21651;-78
2023/06/03 22:21:40;;;;;;;24.33;22.23;;;13.10;10.80;;;;;;2614674;54;20399;-79
2023/06/03 22:27:29;;;;;;;20.00;18.80;;;12.80;13.70;;;;;;2610487;54;20419;-78
2023/06/03 22:33:16;;;;;;;20.20;19.10;;;12.90;16.60;;;;;;2613412;54;20131;-78
2023/06/03 22:39:04;;;;;;;20.00;18.70;;;12.70;21.80;;;;;;2611007;54;20138;-78
2023/06/03 22:44:52;;;;;;;19.90;18.80;;;12.40;25.50;;;;;;2611499;39;20956;-78
2023/06/03 22:50:40;;;;;;;25.13;23.53;;;12.40;30.60;;;;;;2610108;54;20138;-77
2023/06/03 22:56:28;;;;;;;23.20;21.40;;;12.10;38.10;;;;;;2611172;54;20234;-79
2023/06/03 23:02:16;;;;;;;24.37;22.70;;;12.10;39.80;;;;;;2611800;54;20157;-79
2023/06/03 23:08:04;;;;;;;21.03;19.83;;;12.10;37.60;;;;;;2611134;54;20372;-79
2023/06/03 23:13:52;;;;;;;18.93;17.87;;;12.20;41.90;;;;;;2611552;54;20511;-79
2023/06/03 23:19:40;;;;;;;20.87;19.87;;;12.00;49.00;;;;;;2615334;54;20154;-79
2023/06/03 23:25:28;;;;;;;19.73;18.63;;;11.60;67.80;;;;;;2614465;54;20455;-79
2023/06/03 23:31:16;;;;;;;19.90;18.90;;;11.60;86.90;;;;;;2610694;54;20962;-77
2023/06/03 23:37:04;;;;;;;18.37;17.00;;;11.50;96.20;;;;;;2612355;54;20134;-79
2023/06/03 23:42:52;;;;;;;18.70;17.50;;;11.30;99.30;;;;;;2610650;54;20470;-78
2023/06/03 23:48:40;;;;;;;19.20;18.10;;;11.40;96.70;;;;;;2614508;54;20286;-78
2023/06/03 23:54:28;;;;;;;18.33;17.33;;;11.40;91.60;;;;;;2611221;54;20660;-79
